createdAt,value
2022-09-21T00:01:14.860Z,704.49383
2022-09-21T00:06:16.643Z,704.49383
2022-09-21T00:11:18.418Z,686.16867
2022-09-21T00:16:20.270Z,686.16867
2022-09-21T00:21:21.964Z,686.16867
2022-09-21T00:26:23.939Z,704.49383
2022-09-21T00:31:25.802Z,677.33333
2022-09-21T00:36:27.608Z,652.04598
2022-09-21T00:41:29.383Z,644
2022-09-21T00:46:31.123Z,668.70588
2022-09-21T00:51:32.877Z,660.27907
2022-09-21T00:56:35.187Z,660.27907
2022-09-21T01:01:36.811Z,644
2022-09-21T01:06:38.420Z,652.04598
2022-09-21T01:11:40.083Z,644
2022-09-21T01:16:41.738Z,644
2022-09-21T01:21:43.428Z,644
2022-09-21T01:26:45.724Z,660.27907
2022-09-21T01:31:47.380Z,636.13483
2022-09-21T01:36:49.064Z,660.27907
2022-09-21T01:41:50.838Z,636.13483
2022-09-21T01:46:52.482Z,628.44444
2022-09-21T01:51:54.136Z,652.04598
2022-09-21T01:56:56.431Z,660.27907
2022-09-21T02:01:58.057Z,652.04598
2022-09-21T02:06:59.855Z,660.27907
2022-09-21T02:12:01.434Z,660.27907
2022-09-21T02:17:02.853Z,677.33333
2022-09-21T02:22:04.304Z,677.33333
2022-09-21T02:27:07.167Z,677.33333
2022-09-21T02:32:08.621Z,677.33333
2022-09-21T02:37:10.121Z,677.33333
2022-09-21T02:42:11.650Z,668.70588
2022-09-21T02:47:13.113Z,652.04598
2022-09-21T02:52:14.789Z,668.70588
2022-09-21T02:57:17.262Z,668.70588
2022-09-21T03:02:19.097Z,668.70588
2022-09-21T03:07:20.836Z,677.33333
2022-09-21T03:12:22.754Z,686.16867
2022-09-21T03:17:24.489Z,668.70588
2022-09-21T03:22:26.227Z,677.33333
2022-09-21T03:27:28.946Z,668.70588
2022-09-21T03:32:30.688Z,668.70588
2022-09-21T03:37:32.431Z,677.33333
2022-09-21T03:42:34.170Z,704.49383
2022-09-21T03:47:35.897Z,686.16867
2022-09-21T03:52:37.656Z,660.27907
2022-09-21T03:57:40.105Z,686.16867
2022-09-21T04:02:41.922Z,644
2022-09-21T04:07:44.504Z,668.70588
2022-09-21T04:12:46.300Z,652.04598
2022-09-21T04:17:48.054Z,644
2022-09-21T04:22:49.789Z,652.04598
2022-09-21T04:27:51.771Z,644
2022-09-21T04:32:53.498Z,644
2022-09-21T04:37:55.225Z,628.44444
2022-09-21T04:42:57.171Z,613.56522
2022-09-21T04:47:58.949Z,628.44444
2022-09-21T04:53:00.723Z,628.44444
2022-09-21T04:58:02.596Z,599.31915
2022-09-21T05:03:04.077Z,585.66667
2022-09-21T05:08:05.565Z,592.42105
2022-09-21T05:13:07.129Z,599.31915
2022-09-21T05:18:08.675Z,572.57143
2022-09-21T05:23:12.592Z,599.31915
2022-09-21T05:28:18.223Z,606.36559
2022-09-21T05:33:19.983Z,599.31915
2022-09-21T05:38:21.760Z,620.92308
2022-09-21T05:43:23.616Z,613.56522
2022-09-21T05:48:25.416Z,585.66667
2022-09-21T05:53:27.165Z,620.92308
2022-09-21T05:58:29.239Z,620.92308
2022-09-21T06:03:30.968Z,613.56522
2022-09-21T06:08:32.671Z,613.56522
2022-09-21T06:13:34.508Z,592.42105
2022-09-21T06:18:36.264Z,599.31915
2022-09-21T06:23:38.496Z,599.31915
2022-09-21T06:28:40.634Z,572.57143
2022-09-21T06:33:46.169Z,542.05825
2022-09-21T06:38:49.658Z,579.05155
2022-09-21T06:43:51.342Z,606.36559
2022-09-21T06:48:52.916Z,585.66667
2022-09-21T06:53:54.382Z,547.92157
2022-09-21T06:58:56.026Z,536.30769
2022-09-21T07:03:57.655Z,566.22222
2022-09-21T07:14:31.575Z,579.05155
2022-09-21T07:19:33.398Z,560
2022-09-21T07:24:35.171Z,579.05155
2022-09-21T07:29:37.340Z,579.05155
2022-09-21T07:34:39.170Z,606.36559
2022-09-21T07:39:40.946Z,592.42105
2022-09-21T07:44:42.735Z,572.57143
2022-09-21T07:49:44.566Z,636.13483
2022-09-21T07:54:46.314Z,636.13483
2022-09-21T07:59:48.315Z,585.66667
2022-09-21T08:04:50.073Z,585.66667
2022-09-21T08:09:51.840Z,636.13483
2022-09-21T08:14:53.583Z,660.27907
2022-09-21T08:19:55.291Z,636.13483
2022-09-21T08:24:56.995Z,628.44444
2022-09-21T08:29:59.629Z,644
2022-09-21T08:35:01.379Z,599.31915
2022-09-21T08:40:02.888Z,566.22222
2022-09-21T08:45:04.405Z,613.56522
2022-09-21T08:50:05.907Z,613.56522
2022-09-21T08:55:07.350Z,585.66667
2022-09-21T09:00:09.101Z,553.90099
2022-09-21T09:05:10.572Z,613.56522
2022-09-21T09:10:12.249Z,652.04598
2022-09-21T09:15:13.716Z,620.92308
2022-09-21T09:20:15.304Z,628.44444
2022-09-21T09:25:16.762Z,599.31915
2022-09-21T09:30:19.432Z,620.92308
2022-09-21T09:35:21.177Z,620.92308
2022-09-21T09:40:23.059Z,606.36559
2022-09-21T09:45:26.167Z,644
2022-09-21T09:50:27.969Z,579.05155
2022-09-21T09:55:29.582Z,579.05155
2022-09-21T10:00:31.505Z,668.70588
2022-09-21T10:05:33.226Z,660.27907
2022-09-21T10:10:34.662Z,628.44444
2022-09-21T10:15:36.570Z,599.31915
2022-09-21T10:20:38.244Z,636.13483
2022-09-21T10:25:40.398Z,620.92308
2022-09-21T10:30:43.131Z,628.44444
2022-09-21T10:35:44.776Z,628.44444
2022-09-21T10:40:46.497Z,636.13483
2022-09-21T10:45:48.266Z,644
2022-09-21T10:50:49.915Z,585.66667
2022-09-21T10:56:04.804Z,566.22222
2022-09-21T11:01:16.648Z,560
2022-09-21T11:06:18.372Z,636.13483
2022-09-21T11:11:19.809Z,677.33333
2022-09-21T11:16:21.731Z,668.70588
2022-09-21T11:21:23.520Z,636.13483
2022-09-21T11:26:25.259Z,592.42105
2022-09-21T11:31:27.423Z,572.57143
2022-09-21T11:36:29.138Z,585.66667
2022-09-21T11:41:30.860Z,579.05155
2022-09-21T11:46:32.703Z,566.22222
2022-09-21T11:51:34.442Z,547.92157
2022-09-21T11:56:36.177Z,553.90099
2022-09-21T12:01:38.094Z,566.22222
2022-09-21T12:06:39.527Z,572.57143
2022-09-21T12:11:41.254Z,530.66667
2022-09-21T12:16:43.169Z,519.70093
2022-09-21T12:21:44.866Z,536.30769
2022-09-21T12:26:46.634Z,566.22222
2022-09-21T12:31:48.485Z,572.57143
2022-09-21T12:36:50.129Z,553.90099
2022-09-21T12:41:51.783Z,579.05155
2022-09-21T12:46:53.664Z,585.66667
2022-09-21T12:51:55.405Z,636.13483
2022-09-21T12:56:57.073Z,606.36559
2022-09-21T13:01:59.163Z,652.04598
2022-09-21T13:07:00.930Z,644
2022-09-21T13:12:02.635Z,599.31915
2022-09-21T13:17:04.092Z,606.36559
2022-09-21T13:22:05.584Z,613.56522
2022-09-21T13:27:07.087Z,592.42105
2022-09-21T13:32:09.131Z,547.92157
2022-09-21T13:37:10.744Z,560
2022-09-21T13:42:12.203Z,585.66667
2022-09-21T13:47:13.690Z,613.56522
2022-09-21T13:52:15.205Z,620.92308
2022-09-21T13:57:16.953Z,613.56522
2022-09-21T14:02:18.991Z,636.13483
2022-09-21T14:07:20.693Z,660.27907
2022-09-21T14:12:22.347Z,660.27907
2022-09-21T14:17:25.567Z,695.21951
2022-09-21T14:22:27.396Z,704.49383
2022-09-21T14:27:29.175Z,723.74684
2022-09-21T14:32:31.938Z,695.21951
2022-09-21T14:37:33.580Z,733.74359
2022-09-21T14:42:35.348Z,677.33333
2022-09-21T14:47:37.217Z,704.49383
2022-09-21T14:52:38.921Z,733.74359
2022-09-21T14:57:40.639Z,723.74684
2022-09-21T15:02:42.533Z,723.74684
2022-09-21T15:07:44.398Z,704.49383
2022-09-21T15:12:46.107Z,723.74684
2022-09-21T15:17:47.874Z,723.74684
2022-09-21T15:22:49.594Z,744
2022-09-21T15:27:51.394Z,723.74684
2022-09-21T15:32:53.315Z,677.33333
2022-09-21T15:37:55.087Z,744
2022-09-21T15:42:56.807Z,686.16867
2022-09-21T15:47:58.560Z,733.74359
2022-09-21T15:53:00.275Z,723.74684
2022-09-21T15:58:02.085Z,714
2022-09-21T16:03:04.691Z,668.70588
2022-09-21T16:08:06.591Z,660.27907
2022-09-21T16:13:08.042Z,628.44444
2022-09-21T16:18:09.495Z,606.36559
2022-09-21T16:23:11.054Z,536.30769
2022-09-21T16:28:12.504Z,592.42105
2022-09-21T16:33:14.335Z,592.42105
2022-09-21T16:38:15.861Z,592.42105
2022-09-21T16:43:17.580Z,553.90099
2022-09-21T16:48:19.402Z,599.31915
2022-09-21T16:53:21.135Z,628.44444
2022-09-21T16:58:22.858Z,620.92308
2022-09-21T17:03:24.706Z,585.66667
2022-09-21T17:08:26.408Z,592.42105
2022-09-21T17:13:28.158Z,547.92157
2022-09-21T17:18:29.955Z,620.92308
2022-09-21T17:23:31.674Z,572.57143
2022-09-21T17:28:33.408Z,560
2022-09-21T17:33:35.345Z,553.90099
2022-09-21T17:38:36.970Z,560
2022-09-21T17:43:38.604Z,560
2022-09-21T17:48:40.279Z,553.90099
2022-09-21T17:53:41.936Z,536.30769
2022-09-21T17:58:43.553Z,553.90099
2022-09-21T18:03:45.503Z,509.13761
2022-09-21T18:08:47.145Z,560
2022-09-21T18:13:48.868Z,579.05155
2022-09-21T18:18:50.600Z,579.05155
2022-09-21T18:23:52.405Z,579.05155
2022-09-21T18:28:54.026Z,566.22222
2022-09-21T18:33:55.981Z,566.22222
2022-09-21T18:38:57.614Z,566.22222
2022-09-21T18:43:59.267Z,553.90099
2022-09-21T18:49:00.946Z,553.90099
2022-09-21T18:54:02.404Z,547.92157
2022-09-21T18:59:03.822Z,560
2022-09-21T19:04:05.475Z,560
2022-09-21T19:09:07.245Z,547.92157
2022-09-21T19:14:09.139Z,547.92157
2022-09-21T19:19:10.584Z,536.30769
2022-09-21T19:24:12.014Z,519.70093
2022-09-21T19:29:13.669Z,536.30769
2022-09-21T19:34:15.540Z,525.13208
2022-09-21T19:39:17.014Z,536.30769
2022-09-21T19:44:18.472Z,542.05825
2022-09-21T19:49:19.917Z,547.92157
2022-09-21T19:54:21.357Z,542.05825
2022-09-21T19:59:23.023Z,542.05825
2022-09-21T20:04:24.675Z,530.66667
2022-09-21T20:09:26.110Z,547.92157
2022-09-21T20:14:27.547Z,547.92157
2022-09-21T20:19:29.027Z,542.05825
2022-09-21T20:24:30.456Z,542.05825
2022-09-21T20:29:31.920Z,547.92157
2022-09-21T20:34:33.796Z,542.05825
2022-09-21T20:39:35.240Z,542.05825
2022-09-21T20:44:36.696Z,547.92157
2022-09-21T20:49:38.204Z,553.90099
2022-09-21T20:54:39.988Z,553.90099
2022-09-21T20:59:41.704Z,553.90099
2022-09-21T21:04:43.896Z,553.90099
2022-09-21T21:09:46.114Z,560
2022-09-21T21:14:47.558Z,553.90099
2022-09-21T21:19:49.105Z,553.90099
2022-09-21T21:24:50.644Z,547.92157
2022-09-21T21:29:52.187Z,547.92157
2022-09-21T21:34:53.874Z,530.66667
2022-09-21T21:39:55.376Z,547.92157
2022-09-21T21:44:56.945Z,542.05825
2022-09-21T21:49:58.493Z,530.66667
2022-09-21T21:54:59.975Z,530.66667
2022-09-21T22:00:01.486Z,530.66667
2022-09-21T22:05:03.104Z,530.66667
2022-09-21T22:10:04.629Z,536.30769
2022-09-21T22:15:06.068Z,525.13208
2022-09-21T22:20:07.732Z,530.66667
2022-09-21T22:25:09.469Z,525.13208
2022-09-21T22:30:10.893Z,525.13208
2022-09-21T22:35:12.554Z,519.70093
2022-09-21T22:40:14.224Z,519.70093
2022-09-21T22:45:16.070Z,525.13208
2022-09-21T22:50:17.941Z,525.13208
2022-09-21T22:55:19.670Z,530.66667
2022-09-21T23:00:21.165Z,525.13208
2022-09-21T23:05:23.291Z,519.70093
2022-09-21T23:10:25.062Z,519.70093
2022-09-21T23:15:26.782Z,519.70093
2022-09-21T23:20:28.592Z,519.70093
2022-09-21T23:25:30.377Z,514.37037
2022-09-21T23:30:31.943Z,514.37037
2022-09-21T23:35:33.821Z,509.13761
2022-09-21T23:40:35.639Z,509.13761
2022-09-21T23:45:37.145Z,504
2022-09-21T23:50:38.993Z,504
2022-09-21T23:55:40.723Z,504
